Data for 05/01/2007

Time Sea-Level Adjusted Pressure Absolute Pressure Temperature Relative Humidity Dew Point   
(mb) (inHg) (mb) (inHg) (C) (F) (%) (C) (F)
00:05 1017 30.03 846 24.98 10.1 50.3 63 3.4 38.1
00:10 1017 30.03 846 24.98 10 50 63 3.3 37.9
00:15 1017 30.03 846 24.98 10 50 63 3.3 37.9
00:20 1017 30.03 846 24.98 9.9 49.9 63 3.3 37.9
00:25 1017 30.03 846 24.98 9.8 49.7 63 3.1 37.6
00:30 1017 30.03 846 24.98 9.9 49.7 63 3.1 37.6
00:35 1017 30.03 846 24.98 9.9 49.7 63 3.1 37.5
00:40 1017 30.03 846 24.98 9.8 49.6 63 3.1 37.6
00:45 1017 30.03 846 24.98 9.7 49.4 63 3.1 37.5
00:50 1017 30.03 846 24.98 9.7 49.5 63 3 37.4
00:55 1017 30.03 846 24.98 9.7 49.4 62 2.9 37.2
01:00 1017 30.03 846 24.98 9.7 49.4 63 3 37.4
01:05 1017 30.03 846 24.98 9.6 49.3 63 3 37.3
01:10 1017 30.03 846 24.98 9.6 49.3 63 2.9 37.3
01:15 1017 30.03 846 24.98 9.6 49.4 62 2.9 37.1
01:20 1017 30.03 846 24.98 9.6 49.4 62 2.8 37.1
01:25 1017 30.03 846 24.98 9.5 49.1 63 2.8 37.1
01:30 1017 30.03 846 24.98 9.5 49 63 2.8 37.1
01:35 1017 30.03 846 24.98 9.4 48.9 63 2.8 37
01:40 1017 30.03 846 24.98 9.3 48.8 64 2.9 37.2
01:45 1017 30.03 846 24.98 9.2 48.6 64 2.7 36.9
01:50 1017 30.03 846 24.98 9.2 48.5 64 2.7 36.8
01:55 1017 30.03 846 24.98 9.2 48.5 63 2.6 36.7
02:00 1017 30.03 846 24.98 9.1 48.5 63 2.6 36.7
02:05 1017 30.03 846 24.98 9.1 48.5 63 2.6 36.6
02:10 1017 30.03 846 24.98 9.1 48.5 63 2.6 36.7
02:15 1017 30.03 846 24.98 9.1 48.3 64 2.6 36.7
02:20 1017 30.03 846 24.98 9 48.2 63 2.5 36.4
02:25 1017 30.03 846 24.98 9 48.2 63 2.5 36.4
02:30 1017 30.03 846 24.98 9 48.2 63 2.4 36.4
02:35 1017 30.03 846 24.98 8.9 48.1 63 2.4 36.3
02:40 1017 30.03 846 24.98 8.9 47.9 64 2.4 36.3
02:45 1017 30.03 846 24.98 8.9 47.9 64 2.4 36.3
02:50 1017 30.03 846 24.98 8.8 47.9 64 2.3 36.2
02:55 1017 30.03 846 24.98 8.8 47.8 63 2.2 36
03:00 1017 30.03 846 24.98 8.7 47.7 63 2.1 35.7
03:05 1017 30.03 846 24.98 8.8 47.8 62 2 35.6
03:10 1017 30.03 846 24.98 8.7 47.7 63 2 35.6
03:15 1017 30.03 846 24.98 8.7 47.6 63 2 35.5
03:20 1017 30.03 846 24.98 8.6 47.4 64 2.1 35.8
03:25 1017 30.03 846 24.98 8.5 47.3 64 2 35.7
03:30 1017 30.03 846 24.98 8.4 47.1 64 1.9 35.5
03:35 1017 30.03 846 24.98 8.5 47.2 64 2 35.5
03:40 1017 30.03 846 24.98 8.3 47 64 1.9 35.5
03:45 1017 30.03 846 24.98 8.4 47 63 1.8 35.3
03:50 1017 30.03 846 24.98 8.4 47.1 63 1.8 35.2
03:55 1017 30.03 846 24.98 8.4 47 63 1.8 35.3
04:00 1017 30.03 846 24.98 8.3 46.9 64 1.8 35.2
04:05 1017 30.03 846 24.98 8.2 46.7 64 1.8 35.3
04:10 1017 30.03 846 24.98 8.2 46.7 64 1.8 35.2
04:15 1017 30.03 846 24.98 8.1 46.6 64 1.7 35
04:20 1017 30.03 846 24.98 8.1 46.5 64 1.7 35.1
04:25 1017 30.03 846 24.98 8.1 46.5 64 1.6 34.9
04:30 1017 30.03 846 24.98 8 46.5 64 1.6 34.9
04:35 1017 30.03 846 24.98 7.9 46.3 64 1.5 34.6
04:40 1017 30.03 846 24.98 7.9 46.2 63 1.4 34.5
04:45 1017 30.03 846 24.98 7.9 46.2 63 1.4 34.4
04:50 1017 30.03 846 24.98 7.8 46 63 1.2 34.2
04:55 1017 30.03 846 24.98 7.8 46 63 1.2 34.1
05:00 1017 30.03 846 24.98 7.7 45.9 63 1 33.9
05:05 1017 30.03 846 24.98 7.7 45.9 62 1 33.7
05:10 1017 30.03 846 24.98 7.8 46 62 1 33.9
05:15 1017 30.03 846 24.98 7.7 45.9 63 1 33.9
05:20 1017 30.03 846 24.98 7.6 45.7 63 1.1 33.9
05:25 1017 30.03 846 24.98 7.6 45.7 63 1 33.8
05:30 1017 30.03 846 24.98 7.6 45.7 63 1.1 33.9
05:35 1017 30.03 846 24.98 7.6 45.7 63 1.1 33.9
05:40 1017 30.03 846 24.98 7.5 45.6 64 1.1 34
05:45 1017 30.03 846 24.98 7.5 45.4 64 1.1 34
05:50 1017 30.03 846 24.98 7.4 45.4 64 1.1 34
05:55 1017 30.03 846 24.98 7.4 45.3 64 1.2 34.1
06:00 1017 30.03 846 24.98 7.3 45.1 65 1.1 33.9
06:05 1017 30.03 846 24.98 7.3 45.1 64 1 33.8
06:10 1017 30.03 846 24.98 7.3 45.1 64 1 33.8
06:15 1017 30.03 846 24.98 7.2 45 64 1 33.7
06:20 1017 30.03 846 24.98 7.2 44.9 65 1 33.9
06:25 1017 30.03 846 24.98 7.2 45 65 1 33.8
06:30 1017 30.03 846 24.98 7.2 45 65 1.2 34.2
06:35 1017 30.03 846 24.98 7.2 44.9 65 1.1 33.9
06:40 1017 30.03 846 24.98 7.3 45.1 65 1.1 34
06:45 1017 30.03 846 24.98 7.3 45.2 65 1.2 34.1
06:50 1017 30.03 846 24.98 7.4 45.4 64 1.2 34.1
06:55 1017 30.03 846 24.98 7.5 45.4 65 1.3 34.4
07:00 1017 30.03 846 24.98 7.4 45.4 65 1.2 34.2
07:05 1017 30.03 846 24.98 7.4 45.3 64 1.1 34
07:10 1017 30.03 846 24.98 7.5 45.5 64 1.1 33.9
07:15 1017 30.03 846 24.98 7.7 45.8 63 1.1 34
07:20 1017 30.03 846 24.98 7.8 46.1 63 1.2 34.1
07:25 1017 30.03 846 24.98 8 46.3 62 1.2 34.2
07:30 1017 30.03 846 24.98 8.2 46.7 63 1.5 34.6
07:35 1017 30.03 846 24.98 8.2 46.7 63 1.5 34.7
07:40 1017 30.03 846 24.98 8.5 47.3 62 1.6 34.8
07:45 1017 30.03 846 24.98 8.7 47.6 61 1.6 34.9
07:50 1017 30.03 846 24.98 8.9 48 61 1.9 35.3
07:55 1017 30.03 846 24.98 9 48.2 61 1.9 35.5
08:00 1017 30.03 846 24.98 9.1 48.4 61 2 35.7
08:05 1017 30.03 846 24.98 9.3 48.8 60 2.1 35.7
08:10 1017 30.03 846 24.98 9.5 49.1 60 2.1 35.9
08:15 1017 30.03 846 24.98 9.7 49.4 60 2.3 36.1
08:20 1017 30.03 846 24.98 9.8 49.7 59 2.3 36.2
08:25 1017 30.03 846 24.98 10.1 50.3 59 2.5 36.4
08:30 1017 30.03 846 24.98 10.5 50.8 57 2.4 36.3
08:35 1017 30.03 846 24.98 10.5 50.9 57 2.5 36.5
08:40 1017 30.03 846 24.98 10.7 51.2 57 2.5 36.5
08:45 1016 30 846 24.98 11 51.9 56 2.5 36.6
08:50 1016 30 846 24.98 11.2 52.2 55 2.5 36.6
08:55 1016 30 846 24.98 11.5 52.7 54 2.5 36.5
09:00 1016 30 846 24.98 11.5 52.6 54 2.5 36.4
09:05 1016 30 846 24.98 11.7 53 53 2.5 36.5
09:10 1016 30 846 24.98 12.1 53.7 52 2.5 36.6
09:15 1016 30 846 24.98 12.3 54.1 52 2.8 37.1
09:20 1016 30 846 24.98 12.7 54.9 50 2.7 36.8
09:25 1016 30 846 24.98 12.6 54.8 51 2.8 37.1
09:30 1016 30 845 24.95 12.9 55.2 50 2.7 36.9
09:35 1016 30 845 24.95 13.3 55.9 49 2.8 37
09:40 1016 30 845 24.95 13.5 56.2 49 3 37.4
09:45 1016 30 845 24.95 13.6 56.5 48 2.9 37.1
09:50 1016 30 845 24.95 14.1 57.3 48 3.4 38.2
09:55 1016 30 845 24.95 14.6 58.3 48 3.8 38.9
10:00 1016 30 845 24.95 14.9 58.8 49 4.3 39.7
10:05 1016 30 845 24.95 14 57.1 51 4.1 39.4
10:10 1016 30 845 24.95 13.8 56.8 53 4.4 39.9
10:15 1016 30 845 24.95 14.3 57.7 51 4.4 40
10:20 1016 30 845 24.95 15.1 59.1 49 4.6 40.2
10:25 1016 30 845 24.95 15.5 59.8 49 4.9 40.8
10:30 1016 30 845 24.95 15.7 60.3 48 4.8 40.7
10:35 1016 30 845 24.95 15.4 59.8 46 3.9 39.1
10:40 1016 30 845 24.95 16 60.8 46 4.5 40.1
10:45 1016 30 845 24.95 15.9 60.6 47 4.7 40.5
10:50 1016 30 845 24.95 14.7 58.5 50 4.5 40.1
10:55 1016 30 845 24.95 15.6 60.1 47 4.3 39.8
11:00 1016 30 845 24.95 16.9 62.5 45 5.1 41.1
11:05 1016 30 845 24.95 17.3 63.2 43 4.7 40.4
11:10 1016 30 845 24.95 17.7 63.8 43 5.1 41.1
11:15 1016 30 845 24.95 17.4 63.3 44 5.1 41.2
11:20 1016 30 845 24.95 16 60.8 47 4.6 40.3
11:25 1016 30 845 24.95 17.1 62.8 43 4.6 40.2
11:30 1016 30 845 24.95 17.1 62.8 45 5.1 41.1
11:35 1016 30 845 24.95 18.3 64.9 40 4.6 40.2
11:40 1016 30 845 24.95 18.4 65.1 41 5.2 41.3
11:45 1016 30 845 24.95 18 64.3 42 4.9 40.9
11:50 1016 30 845 24.95 18 64.4 40 4.4 40
11:55 1015 29.97 845 24.95 18.1 64.5 43 5.5 41.8
12:00 1015 29.97 845 24.95 17.5 63.5 42 4.6 40.4
12:05 1015 29.97 844 24.92 18.1 64.6 40 4.3 39.8
12:10 1015 29.97 844 24.92 19.3 66.8 36 4.1 39.3
12:15 1015 29.97 844 24.92 20.3 68.6 35 4.5 40
12:20 1015 29.97 844 24.92 20.4 68.8 34 4.4 39.9
12:25 1015 29.97 844 24.92 20.6 69.1 33 3.8 38.8
12:30 1015 29.97 844 24.92 20.5 68.8 34 4.2 39.6
12:35 1015 29.97 844 24.92 20.8 69.4 31 3 37.3
12:40 1015 29.97 844 24.92 20.9 69.5 32 3.6 38.6
12:45 1015 29.97 844 24.92 21.1 69.9 33 4.2 39.5
12:50 1015 29.97 844 24.92 20.9 69.5 33 4 39.2
12:55 1015 29.97 844 24.92 21.4 70.5 32 4.4 40
13:00 1015 29.97 844 24.92 21.7 71 31 4.2 39.6
13:05 1014 29.94 844 24.92 21.6 71 30 3.7 38.6
13:10 1014 29.94 844 24.92 21.9 71.4 29 3.1 37.6
13:15 1014 29.94 844 24.92 21.5 70.6 29 3.1 37.6
13:20 1014 29.94 843 24.89 21.9 71.3 27 2.2 35.9
13:25 1014 29.94 843 24.89 22.7 72.9 24 1.2 34.1
13:30 1014 29.94 843 24.89 22.8 73 25 1.8 35.2
13:35 1014 29.94 843 24.89 22.9 73.2 25 2 35.6
13:40 1014 29.94 843 24.89 22.2 71.9 26 1.9 35.5
13:45 1014 29.94 843 24.89 22.7 72.9 25 1.8 35.2
13:50 1014 29.94 843 24.89 23.6 74.4 23 1.6 34.9
13:55 1014 29.94 843 24.89 23.3 74 22 0.8 33.4
14:00 1014 29.94 843 24.89 22.9 73.2 23 0.9 33.7
14:05 1013 29.91 843 24.89 23.1 73.6 22 0.4 32.6
14:10 1013 29.91 843 24.89 22.9 73.2 21 -0.3 31.4
14:15 1013 29.91 843 24.89 23.7 74.6 19 -1.4 29.4
14:20 1013 29.91 843 24.89 24.1 75.3 18 -1.5 29.2
14:25 1013 29.91 842 24.86 24.2 75.6 19 -0.9 30.4
14:30 1013 29.91 842 24.86 24.1 75.3 19 -0.8 30.6
14:35 1013 29.91 842 24.86 23.2 73.8 19 -1.3 29.7
14:40 1013 29.91 842 24.86 23.7 74.7 19 -1 30.1
14:45 1013 29.91 842 24.86 23.9 75 19 -1 30.1
14:50 1013 29.91 842 24.86 24.7 76.5 17 -1.8 28.8
14:55 1013 29.91 842 24.86 25.2 77.4 16 -2.1 28.2
15:00 1013 29.91 842 24.86 24.9 76.8 18 -1 30.1
15:05 1013 29.91 842 24.86 25.2 77.3 16 -2.3 27.8
15:10 1013 29.91 842 24.86 25.4 77.8 16 -2.1 28.2
15:15 1013 29.91 842 24.86 24.4 75.9 18 -1.4 29.6
15:20 1013 29.91 842 24.86 23.3 73.9 19 -1.3 29.7
15:25 1013 29.91 842 24.86 23.8 74.8 18 -1.4 29.4
15:30 1013 29.91 842 24.86 24.2 75.5 20 0 32.1
15:35 1012 29.88 842 24.86 24.4 75.8 18 -1 30.2
15:40 1012 29.88 842 24.86 23.6 74.4 19 -0.8 30.5
15:45 1012 29.88 841 24.83 22.7 72.9 20 -1 30.1
15:50 1012 29.88 841 24.83 22.4 72.3 20 -1.6 29.2
15:55 1012 29.88 841 24.83 23 73.4 18 -2.1 28.2
16:00 1012 29.88 841 24.83 23.7 74.7 19 -0.9 30.4
16:05 1012 29.88 841 24.83 24.5 76.1 18 -1.3 29.7
16:10 1012 29.88 841 24.83 23.9 75 19 -0.8 30.6
16:15 1012 29.88 841 24.83 24.7 76.4 18 -1.3 29.6
16:20 1012 29.88 841 24.83 23.7 74.7 18 -1.7 29
16:25 1012 29.88 841 24.83 23.1 73.5 19 -1.3 29.7
16:30 1012 29.88 841 24.83 23 73.4 25 2.1 35.9
16:35 1012 29.88 841 24.83 23.3 74 25 2.5 36.4
16:40 1012 29.88 841 24.83 23.8 74.8 24 2.3 36.1
16:45 1012 29.88 841 24.83 23.7 74.6 26 3.2 37.8
16:50 1011 29.85 841 24.83 23.2 73.8 26 2.9 37.2
16:55 1011 29.85 841 24.83 23.3 74 25 2.2 35.9
17:00 1011 29.85 841 24.83 23.4 74.1 26 2.9 37.2
17:05 1011 29.85 840 24.81 22.9 73.3 27 3.1 37.5
17:10 1011 29.85 840 24.81 22.6 72.6 28 3.3 38
17:15 1011 29.85 840 24.81 22.3 72.2 27 2.6 36.7
17:20 1011 29.85 840 24.81 22.5 72.4 29 3.9 39.1
17:25 1011 29.85 840 24.81 22.3 72.1 29 3.6 38.6
17:30 1011 29.85 840 24.81 22.1 71.8 30 3.9 39
17:35 1011 29.85 840 24.81 22 71.7 29 3.4 38.2
17:40 1011 29.85 840 24.81 22.4 72.3 29 3.6 38.5
17:45 1011 29.85 840 24.81 22.1 71.8 29 3.7 38.6
17:50 1011 29.85 840 24.81 21.8 71.2 30 3.5 38.2
17:55 1011 29.85 840 24.81 21.4 70.6 29 3.1 37.5
18:00 1011 29.85 840 24.81 21.5 70.6 30 3.3 37.9
18:05 1011 29.85 840 24.81 21.4 70.4 29 2.6 36.7
18:10 1011 29.85 840 24.81 21.1 70 29 2.7 36.8
18:15 1011 29.85 840 24.81 20.7 69.2 30 2.5 36.5
18:20 1011 29.85 840 24.81 20.3 68.5 30 2.2 35.9
18:25 1011 29.85 840 24.81 20.4 68.7 31 3 37.3
18:30 1010 29.83 840 24.81 20.5 68.9 31 2.9 37.1
18:35 1010 29.83 840 24.81 20.5 68.9 31 3 37.5
18:40 1011 29.85 840 24.81 20.2 68.4 33 3.7 38.7
18:45 1010 29.83 840 24.81 19.9 67.9 35 4 39.2
18:50 1010 29.83 840 24.81 19.8 67.7 35 4.1 39.4
18:55 1010 29.83 840 24.81 19.8 67.7 36 4.3 39.8
19:00 1010 29.83 840 24.81 19.6 67.3 36 4.3 39.7
19:05 1010 29.83 840 24.81 19.5 67.2 36 4.1 39.3
19:10 1010 29.83 840 24.81 19.5 67 37 4.4 40
19:15 1010 29.83 839 24.78 19.5 67.1 38 4.9 40.8
19:20 1010 29.83 840 24.81 19.4 67 38 5.1 41.1
19:25 1010 29.83 840 24.81 19.2 66.6 39 5 41.1
19:30 1010 29.83 840 24.81 19.1 66.4 38 4.4 40
19:35 1010 29.83 839 24.78 19 66.2 38 4.6 40.3
19:40 1010 29.83 840 24.81 18.9 65.9 36 3.6 38.5
19:45 1010 29.83 840 24.81 18.8 65.8 35 3.3 37.9
19:50 1010 29.83 840 24.81 18.7 65.6 35 2.9 37.3
19:55 1010 29.83 840 24.81 18.6 65.4 34 2.6 36.6
20:00 1010 29.83 840 24.81 18.5 65.3 35 2.7 36.9
20:05 1010 29.83 840 24.81 18.4 65.2 36 3.1 37.6
20:10 1010 29.83 840 24.81 18.2 64.8 39 4.1 39.4
20:15 1011 29.85 840 24.81 18.1 64.6 40 4.6 40.2
20:20 1011 29.85 840 24.81 17.9 64.3 42 4.9 40.9
20:25 1010 29.83 840 24.81 17.8 64 44 5.4 41.7
20:30 1010 29.83 840 24.81 17.6 63.8 44 5.3 41.5
20:35 1010 29.83 840 24.81 17.6 63.6 44 5.2 41.4
20:40 1011 29.85 840 24.81 17.5 63.5 44 5.3 41.6
20:45 1011 29.85 840 24.81 17.4 63.3 46 5.7 42.3
20:50 1011 29.85 840 24.81 17.3 63.1 47 5.9 42.6
20:55 1010 29.83 840 24.81 17.2 62.9 47 5.9 42.7
21:00 1011 29.85 840 24.81 17.1 62.8 48 6.1 43
21:05 1011 29.85 840 24.81 17 62.5 49 6.3 43.3
21:10 1011 29.85 840 24.81 16.9 62.3 50 6.5 43.7
21:15 1011 29.85 840 24.81 16.7 62.1 52 6.9 44.4
21:20 1011 29.85 840 24.81 16.6 61.9 53 7.1 44.8
21:25 1011 29.85 840 24.81 16.5 61.7 54 7.2 45
21:30 1011 29.85 840 24.81 16.5 61.6 54 7.2 44.9
21:35 1011 29.85 840 24.81 16.4 61.6 54 7.2 45
21:40 1011 29.85 840 24.81 16.4 61.6 54 7.1 44.8
21:45 1011 29.85 840 24.81 16.4 61.5 55 7.3 45.2
21:50 1011 29.85 840 24.81 16.3 61.3 55 7.3 45.1
21:55 1011 29.85 840 24.81 16.4 61.5 54 7.2 45
22:00 1011 29.85 840 24.81 16.5 61.7 55 7.4 45.4
22:05 1011 29.85 840 24.81 16.6 61.8 55 7.6 45.7
22:10 1011 29.85 840 24.81 16.6 61.8 55 7.6 45.7
22:15 1011 29.85 840 24.81 16.4 61.5 56 7.6 45.7
22:20 1011 29.85 840 24.81 16.3 61.4 56 7.7 45.8
22:25 1011 29.85 840 24.81 16.3 61.3 57 7.7 45.9
22:30 1011 29.85 840 24.81 16.2 61.2 57 7.7 45.8
22:35 1011 29.85 840 24.81 16.2 61.1 57 7.7 45.9
22:40 1011 29.85 840 24.81 16.2 61.1 57 7.7 45.9
22:45 1011 29.85 840 24.81 16.1 61 57 7.8 46
22:50 1011 29.85 840 24.81 16.1 60.9 58 7.8 46
22:55 1011 29.85 840 24.81 16 60.8 58 7.7 45.9
23:00 1010 29.83 840 24.81 16 60.8 58 7.8 46.1
23:05 1010 29.83 840 24.81 16 60.7 58 7.8 46.1
23:10 1010 29.83 839 24.78 15.9 60.6 58 7.8 46.1
23:15 1010 29.83 839 24.78 16 60.8 58 7.9 46.3
23:20 1010 29.83 840 24.81 15.9 60.6 59 8 46.3
23:25 1010 29.83 840 24.81 15.7 60.3 60 8.1 46.6
23:30 1010 29.83 840 24.81 15.5 59.9 61 8 46.5
23:35 1010 29.83 839 24.78 15.5 59.8 61 8 46.3
23:40 1010 29.83 839 24.78 15.5 59.9 60 8 46.3
23:45 1010 29.83 840 24.81 15.5 60 60 7.9 46.1
23:50 1010 29.83 839 24.78 15.6 60.1 60 8 46.4
23:55 1010 29.83 839 24.78 15.6 60 61 8.1 46.6
24:00 1010 29.83 839 24.78 15.5 60 60 7.9 46.1